createdAt,value
2023-04-21T00:01:16.667Z,95915.78
2023-04-21T00:03:48.091Z,95919.16
2023-04-21T00:06:22.964Z,95921.81
2023-04-21T00:08:52.045Z,95915.88
2023-04-21T00:11:21.029Z,95913.53
2023-04-21T00:13:49.589Z,95909.56
2023-04-21T00:16:18.267Z,95905.41
2023-04-21T00:18:49.217Z,95904.69
2023-04-21T00:21:17.968Z,95897.34
2023-04-21T00:23:47.635Z,95899.19
2023-04-21T00:26:16.070Z,95899.56
2023-04-21T00:28:44.955Z,95901.22
2023-04-21T00:31:13.939Z,95905.34
2023-04-21T00:33:42.479Z,95909.31
2023-04-21T00:36:12.486Z,95905.44
2023-04-21T00:38:40.871Z,95903.63
2023-04-21T00:41:09.609Z,95895.78
2023-04-21T00:43:38.721Z,95900.13
2023-04-21T00:46:08.018Z,95894.16
2023-04-21T00:48:36.908Z,95889.78
2023-04-21T00:51:05.746Z,95890.69
2023-04-21T00:53:36.000Z,95895.34
2023-04-21T00:56:05.173Z,95890.38
2023-04-21T00:58:34.514Z,95893.75
2023-04-21T01:01:03.053Z,95899.84
2023-04-21T01:03:32.629Z,95896.34
2023-04-21T01:06:01.851Z,95890.16
2023-04-21T01:08:30.606Z,95888.44
2023-04-21T01:11:00.323Z,95875.94
2023-04-21T01:13:28.995Z,95882.63
2023-04-21T01:15:57.781Z,95881.91
2023-04-21T01:18:26.728Z,95887.09
2023-04-21T01:20:55.383Z,95881.09
2023-04-21T01:23:25.783Z,95884.47
2023-04-21T01:25:55.280Z,95860.84
2023-04-21T01:28:24.446Z,95885.66
2023-04-21T01:30:53.773Z,95891.38
2023-04-21T01:33:22.934Z,95889.72
2023-04-21T01:35:51.779Z,95887.91
2023-04-21T01:38:20.527Z,95880.25
2023-04-21T01:40:53.759Z,95879.97
2023-04-21T01:43:26.775Z,95881.72
2023-04-21T01:45:55.510Z,95869.69
2023-04-21T01:48:24.099Z,95892.00
2023-04-21T01:50:55.124Z,95888.72
2023-04-21T01:53:23.841Z,95865.06
2023-04-21T01:55:54.116Z,95885.47
2023-04-21T01:58:22.697Z,95887.91
2023-04-21T02:00:51.121Z,95887.91
2023-04-21T02:03:20.143Z,95884.53
2023-04-21T02:05:48.613Z,95888.94
2023-04-21T02:08:18.603Z,95883.13
2023-04-21T02:10:47.226Z,95883.91
2023-04-21T02:13:17.484Z,95883.91
2023-04-21T02:15:46.688Z,95884.84
2023-04-21T02:18:17.053Z,95883.28
2023-04-21T02:20:45.734Z,95886.88
2023-04-21T02:23:14.434Z,95889.41
2023-04-21T02:25:43.286Z,95885.41
2023-04-21T02:28:14.700Z,95887.97
2023-04-21T02:30:46.414Z,95889.72
2023-04-21T02:33:15.021Z,95882.09
2023-04-21T02:35:44.047Z,95883.91
2023-04-21T02:38:13.124Z,95892.25
2023-04-21T02:40:42.956Z,95887.25
2023-04-21T02:43:12.976Z,95888.91
2023-04-21T02:45:42.218Z,95890.00
2023-04-21T02:48:12.564Z,95885.94
2023-04-21T02:50:41.583Z,95879.50
2023-04-21T02:53:10.513Z,95884.47
2023-04-21T02:55:39.240Z,95883.88
2023-04-21T02:58:08.356Z,95883.25
2023-04-21T03:00:39.080Z,95876.34
2023-04-21T03:03:07.974Z,95873.88
2023-04-21T03:05:37.850Z,95871.16
2023-04-21T03:08:07.111Z,95871.97
2023-04-21T03:10:35.817Z,95868.81
2023-04-21T03:13:04.634Z,95872.16
2023-04-21T03:15:33.402Z,95869.53
2023-04-21T03:18:02.070Z,95869.53
2023-04-21T03:20:31.054Z,95873.78
2023-04-21T03:23:01.238Z,95877.31
2023-04-21T03:25:30.043Z,95874.97
2023-04-21T03:27:58.756Z,95881.88
2023-04-21T03:30:27.716Z,95878.81
2023-04-21T03:32:56.749Z,95874.16
2023-04-21T03:35:25.484Z,95872.59
2023-04-21T03:37:54.108Z,95876.16
2023-04-21T03:40:24.417Z,95862.72
2023-04-21T03:42:53.106Z,95873.88
2023-04-21T03:45:22.952Z,95870.66
2023-04-21T03:47:55.142Z,95872.47
2023-04-21T03:50:23.896Z,95880.56
2023-04-21T03:52:52.666Z,95886.19
2023-04-21T03:55:21.353Z,95896.03
2023-04-21T03:57:51.633Z,95886.78
2023-04-21T04:00:21.435Z,95886.59
2023-04-21T04:02:50.742Z,95886.59
2023-04-21T04:05:19.896Z,95878.25
2023-04-21T04:07:48.618Z,95877.59
2023-04-21T04:10:17.397Z,95886.50
2023-04-21T04:12:45.882Z,95886.19
2023-04-21T04:15:16.482Z,95889.47
2023-04-21T04:17:45.488Z,95883.41
2023-04-21T04:20:14.271Z,95883.91
2023-04-21T04:22:42.745Z,95887.00
2023-04-21T04:25:13.100Z,95885.28
2023-04-21T04:27:41.892Z,95892.69
2023-04-21T04:30:11.671Z,95876.41
2023-04-21T04:32:41.946Z,95893.44
2023-04-21T04:35:13.237Z,95897.41
2023-04-21T04:37:42.409Z,95895.47
2023-04-21T04:40:12.448Z,95894.91
2023-04-21T04:42:41.103Z,95886.91
2023-04-21T04:45:11.620Z,95884.97
2023-04-21T04:47:46.818Z,95891.50
2023-04-21T04:50:15.746Z,95896.38
2023-04-21T04:52:47.062Z,95899.66
2023-04-21T04:55:16.046Z,95901.19
2023-04-21T04:57:45.147Z,95895.28
2023-04-21T05:00:14.845Z,95900.88
2023-04-21T05:02:45.108Z,95899.97
2023-04-21T05:05:14.152Z,95894.59
2023-04-21T05:07:43.076Z,95904.19
2023-04-21T05:10:11.737Z,95903.88
2023-04-21T05:12:40.693Z,95907.88
2023-04-21T05:15:11.174Z,95911.63
2023-04-21T05:17:39.868Z,95907.66
2023-04-21T05:20:11.104Z,95910.44
2023-04-21T05:22:40.522Z,95904.47
2023-04-21T05:25:09.477Z,95915.06
2023-04-21T05:27:38.362Z,95916.38
2023-04-21T05:30:07.636Z,95911.69
2023-04-21T05:32:36.471Z,95912.13
2023-04-21T05:35:05.216Z,95904.91
2023-04-21T05:37:35.133Z,95908.44
2023-04-21T05:40:04.145Z,95912.00
2023-04-21T05:42:32.921Z,95912.19
2023-04-21T05:45:01.593Z,95911.34
2023-04-21T05:47:30.190Z,95907.34
2023-04-21T05:49:58.943Z,95915.22
2023-04-21T05:52:27.628Z,95901.31
2023-04-21T05:54:57.626Z,95902.00
2023-04-21T05:57:26.337Z,95903.56
2023-04-21T05:59:54.919Z,95903.19
2023-04-21T06:02:24.259Z,95903.13
2023-04-21T06:04:54.058Z,95902.47
2023-04-21T06:07:22.964Z,95900.88
2023-04-21T06:09:52.481Z,95898.25
2023-04-21T06:12:22.620Z,95892.13
2023-04-21T06:14:50.851Z,95894.72
2023-04-21T06:17:20.314Z,95883.66
2023-04-21T06:19:53.302Z,95896.00
2023-04-21T06:22:22.422Z,95899.78
2023-04-21T06:24:51.522Z,95892.00
2023-04-21T06:27:20.136Z,95895.56
2023-04-21T06:29:50.516Z,95898.69
2023-04-21T06:32:19.263Z,95895.81
2023-04-21T06:34:47.767Z,95895.13
2023-04-21T06:37:16.764Z,95889.50
2023-04-21T06:39:45.643Z,95893.19
2023-04-21T06:42:14.683Z,95892.84
2023-04-21T06:44:43.358Z,95888.22
2023-04-21T06:47:13.463Z,95894.38
2023-04-21T06:49:42.508Z,95887.22
2023-04-21T06:52:11.739Z,95891.22
2023-04-21T06:54:42.198Z,95894.22
2023-04-21T06:57:10.599Z,95884.50
2023-04-21T06:59:39.100Z,95888.28
2023-04-21T07:02:07.901Z,95882.88
2023-04-21T07:04:38.191Z,95888.56
2023-04-21T07:07:06.928Z,95886.81
2023-04-21T07:09:36.201Z,95880.56
2023-04-21T07:12:04.729Z,95892.84
2023-04-21T07:14:34.064Z,95893.50
2023-04-21T07:17:02.576Z,95881.50
2023-04-21T07:19:34.384Z,95893.78
2023-04-21T07:22:04.672Z,95893.31
2023-04-21T07:24:35.832Z,95891.78
2023-04-21T07:27:04.671Z,95890.28
2023-04-21T07:29:37.628Z,95884.78
2023-04-21T07:32:06.552Z,95891.31
2023-04-21T07:34:35.114Z,95891.88
2023-04-21T07:37:05.956Z,95902.56
2023-04-21T07:39:34.922Z,95903.53
2023-04-21T07:42:04.005Z,95894.59
2023-04-21T07:44:32.584Z,95895.13
2023-04-21T07:47:01.528Z,95899.28
2023-04-21T07:49:30.587Z,95890.84
2023-04-21T07:51:59.503Z,95891.03
2023-04-21T07:54:31.620Z,95889.84
2023-04-21T07:57:01.990Z,95894.22
2023-04-21T07:59:30.458Z,95895.25
2023-04-21T08:01:59.800Z,95890.75
2023-04-21T08:04:29.330Z,95897.72
2023-04-21T08:06:58.118Z,95901.34
2023-04-21T08:09:27.487Z,95899.44
2023-04-21T08:12:00.176Z,95900.50
2023-04-21T08:14:28.837Z,95903.06
2023-04-21T08:16:57.501Z,95897.72
2023-04-21T08:19:26.219Z,95904.25
2023-04-21T08:21:54.697Z,95894.34
2023-04-21T08:24:23.619Z,95901.19
2023-04-21T08:26:52.516Z,95898.91
2023-04-21T08:29:23.931Z,95894.09
2023-04-21T08:31:52.704Z,95897.03
2023-04-21T08:34:23.129Z,95881.09
2023-04-21T08:36:53.789Z,95894.63
2023-04-21T08:39:22.850Z,95888.94
2023-04-21T08:41:52.779Z,95890.38
2023-04-21T08:44:23.781Z,95892.38
2023-04-21T08:46:52.991Z,95889.28
2023-04-21T08:49:22.310Z,95877.31
2023-04-21T08:51:51.708Z,95889.44
2023-04-21T08:54:20.451Z,95891.88
2023-04-21T08:56:49.586Z,95887.56
2023-04-21T08:59:18.327Z,95874.00
2023-04-21T09:02:11.128Z,95882.09
2023-04-21T09:04:41.411Z,95883.53
2023-04-21T09:07:10.348Z,95878.06
2023-04-21T09:09:56.891Z,95882.91
2023-04-21T09:12:25.676Z,95878.69
2023-04-21T09:14:54.080Z,95879.03
2023-04-21T09:17:25.886Z,95880.63
2023-04-21T09:19:54.440Z,95876.53
2023-04-21T09:22:28.707Z,95868.59
2023-04-21T09:25:00.330Z,95875.56
2023-04-21T09:27:30.244Z,95873.31
2023-04-21T09:30:04.549Z,95884.75
2023-04-21T09:32:39.583Z,95853.88
2023-04-21T09:35:11.572Z,95848.84
2023-04-21T09:37:44.777Z,95873.09
2023-04-21T09:40:15.258Z,95866.19
2023-04-21T09:42:45.076Z,95857.75
2023-04-21T09:47:51.966Z,95859.25
2023-04-21T09:50:51.177Z,95856.97
2023-04-21T09:53:16.652Z,95847.56
2023-04-21T09:55:49.669Z,95837.19
2023-04-21T09:58:21.863Z,95841.97
2023-04-21T10:00:51.055Z,95839.47
2023-04-21T10:03:22.662Z,95845.78
2023-04-21T10:05:51.614Z,95836.50
2023-04-21T10:08:20.654Z,95841.34
2023-04-21T10:10:50.683Z,95847.38
2023-04-21T10:13:19.915Z,95843.00
2023-04-21T10:15:48.529Z,95840.81
2023-04-21T10:18:18.813Z,95837.00
2023-04-21T10:20:56.734Z,95837.09
2023-04-21T10:23:33.298Z,95834.34
2023-04-21T10:26:11.834Z,95824.53
2023-04-21T10:28:57.825Z,95772.13
2023-04-21T10:31:34.947Z,95818.56
2023-04-21T10:34:21.171Z,95806.00
2023-04-21T10:37:16.538Z,95817.75
2023-04-21T10:39:48.541Z,95812.16
2023-04-21T10:42:30.828Z,95824.00
2023-04-21T10:45:12.017Z,95825.69
2023-04-21T10:47:44.628Z,95822.13
2023-04-21T10:50:16.090Z,95811.00
2023-04-21T10:52:55.176Z,95819.34
2023-04-21T10:55:24.393Z,95821.31
2023-04-21T10:57:53.048Z,95822.31
2023-04-21T11:00:23.250Z,95784.75
2023-04-21T11:03:03.495Z,95814.53
2023-04-21T11:05:38.597Z,95820.03
2023-04-21T11:08:15.874Z,95818.72
2023-04-21T11:10:47.117Z,95821.03
2023-04-21T11:13:16.088Z,95821.69
2023-04-21T11:15:57.976Z,95793.59
2023-04-21T11:18:43.564Z,95825.28
2023-04-21T11:21:18.480Z,95812.53
2023-04-21T11:23:53.428Z,95811.84
2023-04-21T11:26:32.838Z,95826.25
2023-04-21T11:29:06.242Z,95828.03
2023-04-21T11:31:35.244Z,95825.50
2023-04-21T11:34:05.487Z,95822.44
2023-04-21T11:36:37.409Z,95825.00
2023-04-21T11:39:12.105Z,95818.09
2023-04-21T11:41:42.016Z,95823.66
2023-04-21T11:44:11.024Z,95819.34
2023-04-21T11:46:46.749Z,95821.75
2023-04-21T11:49:17.574Z,95827.28
2023-04-21T11:51:47.325Z,95835.75
2023-04-21T11:54:22.124Z,95821.19
2023-04-21T11:56:59.663Z,95829.06
2023-04-21T11:59:30.119Z,95825.97
2023-04-21T12:01:59.169Z,95823.31
2023-04-21T12:04:27.649Z,95825.56
2023-04-21T12:07:03.807Z,95822.91
2023-04-21T12:09:37.998Z,95821.47
2023-04-21T12:12:08.507Z,95818.69
2023-04-21T12:14:37.295Z,95823.00
2023-04-21T12:17:08.684Z,95811.91
2023-04-21T12:19:39.753Z,95823.16
2023-04-21T12:22:10.291Z,95819.47
2023-04-21T12:24:40.883Z,95816.22
2023-04-21T12:27:09.985Z,95811.91
2023-04-21T12:29:39.424Z,95804.50
2023-04-21T12:32:08.685Z,95803.78
2023-04-21T12:34:37.798Z,95803.50
2023-04-21T12:37:06.600Z,95798.16
2023-04-21T12:39:35.877Z,95786.41
2023-04-21T12:42:06.535Z,95793.50
2023-04-21T12:44:35.631Z,95793.44
2023-04-21T12:47:04.376Z,95786.84
2023-04-21T12:49:33.553Z,95778.22
2023-04-21T12:52:05.851Z,95780.63
2023-04-21T12:54:35.278Z,95795.84
2023-04-21T12:57:06.469Z,95785.06
2023-04-21T12:59:35.291Z,95779.66
2023-04-21T13:02:04.246Z,95767.25
2023-04-21T13:04:35.431Z,95771.91
2023-04-21T13:07:04.017Z,95770.84
2023-04-21T13:09:33.049Z,95776.50
2023-04-21T13:12:02.440Z,95770.72
2023-04-21T13:14:32.858Z,95758.53
2023-04-21T13:17:01.723Z,95766.88
2023-04-21T13:19:31.431Z,95769.19
2023-04-21T13:22:01.092Z,95763.41
2023-04-21T13:24:30.043Z,95770.66
2023-04-21T13:26:58.908Z,95769.28
2023-04-21T13:29:30.452Z,95760.81
2023-04-21T13:32:01.223Z,95762.47
2023-04-21T13:34:32.316Z,95761.25
2023-04-21T13:37:01.285Z,95764.09
2023-04-21T13:39:30.185Z,95760.28
2023-04-21T13:41:59.470Z,95760.97
2023-04-21T13:44:28.372Z,95763.47
2023-04-21T13:46:57.565Z,95762.34
2023-04-21T13:49:28.465Z,95748.66
2023-04-21T13:51:57.997Z,95756.16
2023-04-21T13:54:27.860Z,95750.69
2023-04-21T13:56:57.437Z,95757.81
2023-04-21T13:59:26.003Z,95751.16
2023-04-21T14:01:55.207Z,95755.84
2023-04-21T14:04:24.067Z,95752.97
2023-04-21T14:06:54.246Z,95748.03
2023-04-21T14:09:22.885Z,95738.78
2023-04-21T14:11:51.978Z,95744.00
2023-04-21T14:14:37.480Z,95740.94
2023-04-21T14:17:07.360Z,95731.38
2023-04-21T14:19:36.884Z,95710.38
2023-04-21T14:22:07.159Z,95725.66
2023-04-21T14:24:36.089Z,95737.63
2023-04-21T14:27:04.890Z,95733.44
2023-04-21T14:29:33.716Z,95730.53
2023-04-21T14:32:02.836Z,95734.50
2023-04-21T14:34:31.600Z,95738.09
2023-04-21T14:37:00.793Z,95733.78
2023-04-21T14:39:30.888Z,95720.53
2023-04-21T14:41:59.738Z,95730.28
2023-04-21T14:44:28.706Z,95729.75
2023-04-21T14:47:09.273Z,95723.13
2023-04-21T14:49:40.250Z,95709.69
2023-04-21T14:52:09.565Z,95718.75
2023-04-21T14:54:39.957Z,95709.84
2023-04-21T14:57:19.580Z,95716.13
2023-04-21T14:59:51.025Z,95720.88
2023-04-21T15:02:20.378Z,95706.59
2023-04-21T15:04:49.396Z,95708.03
2023-04-21T15:07:23.844Z,95705.47
2023-04-21T15:09:55.748Z,95707.28
2023-04-21T15:12:24.915Z,95711.94
2023-04-21T15:14:53.826Z,95715.94
2023-04-21T15:17:22.553Z,95714.81
2023-04-21T15:19:51.853Z,95713.19
2023-04-21T15:22:20.824Z,95714.53
2023-04-21T15:24:50.329Z,95721.31
2023-04-21T15:27:23.400Z,95716.13
2023-04-21T15:29:51.961Z,95710.16
2023-04-21T15:32:21.165Z,95709.69
2023-04-21T15:34:49.941Z,95717.22
2023-04-21T15:37:20.306Z,95711.06
2023-04-21T15:39:48.869Z,95704.31
2023-04-21T15:42:17.809Z,95705.25
2023-04-21T15:44:48.492Z,95711.06
2023-04-21T15:47:17.711Z,95703.59
2023-04-21T15:49:46.302Z,95699.97
2023-04-21T15:52:15.518Z,95694.53
2023-04-21T15:54:47.691Z,95705.53
2023-04-21T15:57:16.710Z,95699.34
2023-04-21T15:59:45.386Z,95697.97
2023-04-21T16:02:16.036Z,95692.38
2023-04-21T16:04:45.647Z,95697.69
2023-04-21T16:07:15.162Z,95693.88
2023-04-21T16:09:44.803Z,95700.91
2023-04-21T16:12:13.575Z,95688.25
2023-04-21T16:14:54.325Z,95702.91
2023-04-21T16:17:29.310Z,95697.47
2023-04-21T16:19:58.597Z,95698.53
2023-04-21T16:22:27.672Z,95690.69
2023-04-21T16:24:58.901Z,95700.38
2023-04-21T16:27:27.845Z,95697.69
2023-04-21T16:29:56.818Z,95691.31
2023-04-21T16:32:26.318Z,95687.75
2023-04-21T16:34:56.412Z,95694.81
2023-04-21T16:37:25.433Z,95691.78
2023-04-21T16:39:54.346Z,95702.25
2023-04-21T16:42:23.312Z,95638.38
2023-04-21T16:44:58.673Z,95693.03
2023-04-21T16:47:27.644Z,95702.53
2023-04-21T16:49:58.065Z,95698.41
2023-04-21T16:52:27.581Z,95699.47
2023-04-21T16:54:59.664Z,95704.13
2023-04-21T16:57:31.452Z,95708.97
2023-04-21T17:00:00.680Z,95704.06
2023-04-21T17:02:29.589Z,95706.56
2023-04-21T17:04:59.997Z,95700.00
2023-04-21T17:07:29.211Z,95709.63
2023-04-21T17:09:58.041Z,95707.56
2023-04-21T17:12:27.036Z,95704.59
2023-04-21T17:14:55.976Z,95710.03
2023-04-21T17:17:25.322Z,95701.69
2023-04-21T17:19:54.829Z,95702.88
2023-04-21T17:22:24.986Z,95702.03
2023-04-21T17:24:54.282Z,95698.66
2023-04-21T17:27:23.390Z,95698.84
2023-04-21T17:29:51.759Z,95697.91
2023-04-21T17:32:20.932Z,95700.53
2023-04-21T17:34:49.488Z,95706.19
2023-04-21T17:37:18.242Z,95711.84
2023-04-21T17:39:48.446Z,95713.81
2023-04-21T17:42:17.367Z,95710.41
2023-04-21T17:44:46.102Z,95701.34
2023-04-21T17:47:15.094Z,95712.00
2023-04-21T17:49:44.668Z,95718.94
2023-04-21T17:52:15.451Z,95717.78
2023-04-21T17:54:45.997Z,95715.03
2023-04-21T17:57:16.568Z,95713.41
2023-04-21T17:59:45.014Z,95727.56
2023-04-21T18:02:14.004Z,95720.78
2023-04-21T18:04:43.777Z,95730.13
2023-04-21T18:07:15.486Z,95733.44
2023-04-21T18:09:50.243Z,95725.00
2023-04-21T18:12:20.852Z,95731.75
2023-04-21T18:14:49.939Z,95731.56
2023-04-21T18:17:18.582Z,95741.84
2023-04-21T18:19:47.433Z,95736.28
2023-04-21T18:22:16.535Z,95736.78
2023-04-21T18:24:45.588Z,95742.72
2023-04-21T18:27:15.235Z,95745.22
2023-04-21T18:29:45.498Z,95739.66
2023-04-21T18:32:14.504Z,95745.03
2023-04-21T18:34:43.606Z,95753.38
2023-04-21T18:37:12.820Z,95758.84
2023-04-21T18:39:41.808Z,95756.31
2023-04-21T18:42:10.539Z,95759.66
2023-04-21T18:44:40.811Z,95759.38
2023-04-21T18:47:11.839Z,95756.44
2023-04-21T18:49:42.388Z,95759.75
2023-04-21T18:52:11.129Z,95756.53
2023-04-21T18:54:40.351Z,95762.56
2023-04-21T18:57:09.713Z,95760.97
2023-04-21T18:59:44.131Z,95758.34
2023-04-21T19:02:17.399Z,95761.34
2023-04-21T19:04:46.266Z,95761.09
2023-04-21T19:07:15.992Z,95755.81
2023-04-21T19:09:45.735Z,95757.75
2023-04-21T19:12:14.921Z,95771.00
2023-04-21T19:14:47.573Z,95769.50
2023-04-21T19:17:18.991Z,95766.28
2023-04-21T19:19:48.230Z,95766.19
2023-04-21T19:22:17.275Z,95760.63
2023-04-21T19:24:46.148Z,95760.88
2023-04-21T19:27:15.100Z,95754.97
2023-04-21T19:29:44.464Z,95765.50
2023-04-21T19:32:15.617Z,95764.97
2023-04-21T19:34:45.527Z,95769.56
2023-04-21T19:37:14.823Z,95766.72
2023-04-21T19:39:43.728Z,95768.09
2023-04-21T19:42:12.890Z,95765.13
2023-04-21T19:44:41.695Z,95763.91
2023-04-21T19:47:10.723Z,95763.09
2023-04-21T19:49:39.524Z,95757.00
2023-04-21T19:52:09.873Z,95761.44
2023-04-21T19:54:38.961Z,95763.22
2023-04-21T19:57:08.311Z,95756.88
2023-04-21T19:59:37.370Z,95758.75
2023-04-21T20:02:07.297Z,95766.03
2023-04-21T20:04:37.771Z,95758.72
2023-04-21T20:07:08.765Z,95752.91
2023-04-21T20:09:37.816Z,95762.25
2023-04-21T20:12:07.436Z,95757.63
2023-04-21T20:14:36.776Z,95754.38
2023-04-21T20:17:05.620Z,95758.53
2023-04-21T20:19:35.961Z,95751.66
2023-04-21T20:22:05.447Z,95760.00
2023-04-21T20:24:38.861Z,95760.41
2023-04-21T20:27:08.867Z,95754.16
2023-04-21T20:29:38.034Z,95759.16
2023-04-21T20:32:06.855Z,95761.53
2023-04-21T20:34:36.609Z,95770.53
2023-04-21T20:37:06.030Z,95760.94
2023-04-21T20:39:35.361Z,95768.97
2023-04-21T20:42:12.530Z,95767.59
2023-04-21T20:44:43.364Z,95767.56
2023-04-21T20:47:12.662Z,95767.06
2023-04-21T20:49:41.548Z,95773.56
2023-04-21T20:52:10.982Z,95766.38
2023-04-21T20:54:43.683Z,95774.19
2023-04-21T20:57:14.367Z,95768.75
2023-04-21T20:59:42.982Z,95769.31
2023-04-21T21:02:12.002Z,95763.50
2023-04-21T21:04:41.288Z,95769.56
2023-04-21T21:07:10.392Z,95756.81
2023-04-21T21:09:39.942Z,95700.91
2023-04-21T21:12:09.625Z,95760.19
2023-04-21T21:14:39.514Z,95768.25
2023-04-21T21:17:08.578Z,95761.31
2023-04-21T21:19:37.548Z,95768.41
2023-04-21T21:22:06.267Z,95762.84
2023-04-21T21:24:35.125Z,95774.25
2023-04-21T21:27:04.421Z,95770.44
2023-04-21T21:29:34.030Z,95767.22
2023-04-21T21:32:03.984Z,95766.50
2023-04-21T21:34:32.846Z,95763.84
2023-04-21T21:37:01.657Z,95762.88
2023-04-21T21:39:30.636Z,95762.31
2023-04-21T21:41:59.271Z,95758.84
2023-04-21T21:44:27.890Z,95760.19
2023-04-21T21:46:56.578Z,95759.16
2023-04-21T21:49:27.078Z,95757.53
2023-04-21T21:51:56.395Z,95772.19
2023-04-21T21:54:24.899Z,95762.31
2023-04-21T21:56:54.062Z,95773.63
2023-04-21T21:59:22.677Z,95771.53
2023-04-21T22:01:52.717Z,95770.75
2023-04-21T22:04:21.284Z,95776.69
2023-04-21T22:06:52.313Z,95773.44
2023-04-21T22:09:21.167Z,95777.63
2023-04-21T22:11:50.928Z,95776.00
2023-04-21T22:14:23.203Z,95776.81
2023-04-21T22:16:53.310Z,95774.25
2023-04-21T22:19:22.919Z,95770.53
2023-04-21T22:21:53.297Z,95776.56
2023-04-21T22:24:22.276Z,95774.13
2023-04-21T22:26:52.172Z,95778.56
2023-04-21T22:29:21.435Z,95782.31
2023-04-21T22:31:50.583Z,95779.41
2023-04-21T22:34:20.063Z,95772.91
2023-04-21T22:36:49.425Z,95777.31
2023-04-21T22:39:20.121Z,95737.38
2023-04-21T22:41:48.963Z,95778.44
2023-04-21T22:44:19.497Z,95777.88
2023-04-21T22:46:48.837Z,95784.97
2023-04-21T22:49:18.615Z,95788.81
2023-04-21T22:51:47.784Z,95789.94
2023-04-21T22:54:16.809Z,95775.09
2023-04-21T22:56:46.892Z,95788.09
2023-04-21T22:59:15.609Z,95790.75
2023-04-21T23:01:44.880Z,95792.84
2023-04-21T23:04:14.013Z,95793.44
2023-04-21T23:06:46.621Z,95788.53
2023-04-21T23:09:16.179Z,95787.06
2023-04-21T23:11:46.510Z,95790.44
2023-04-21T23:14:15.942Z,95777.78
2023-04-21T23:16:44.654Z,95776.81
2023-04-21T23:19:13.544Z,95787.41
2023-04-21T23:21:42.359Z,95787.72
2023-04-21T23:24:11.010Z,95790.53
2023-04-21T23:26:39.603Z,95788.19
2023-04-21T23:29:09.993Z,95784.13
2023-04-21T23:31:39.005Z,95779.38
2023-04-21T23:34:08.381Z,95780.28
2023-04-21T23:36:37.383Z,95779.72
2023-04-21T23:39:06.380Z,95776.47
2023-04-21T23:41:35.122Z,95776.78
2023-04-21T23:44:04.019Z,95770.19
2023-04-21T23:46:34.242Z,95774.47
2023-04-21T23:49:03.238Z,95768.88
2023-04-21T23:51:32.039Z,95767.28
2023-04-21T23:54:01.966Z,95763.91
2023-04-21T23:56:31.079Z,95763.31
2023-04-21T23:59:00.139Z,95766.31
